Miles City, MT

1:57 PM MDT on September 17, 2014 (GMT -0600)
Wiley | Change Station
CLOSE
Current Station
Airport
Location: Miles City,
Elevation: 2628 ft
Nearby Weather Stations

Elev 2628 ft 46.43 °N, 105.88 °W | Updated 1 hour ago

Clear
Clear
77 °F
Feels Like 77 °F
N
8
Wind Variable Wind from South

Today
High -- | Low -- °F
--% Chance of Precip.
Yesterday
High -- | Low -- °F
Precip. -- in
6:44 AM 7:10 PM
Waning Crescent, 33% visible
Pressure 29.85 in
Visibility 10.0 miles
Clouds Clear
Dew Point 48 °F
Humidity 36%
Rainfall 0.00 in
Snow Depth 0 in , 0 in , 0 in
UV 7 out of 12
Pollen 5.40 out of 12
Air Quality Not available.
Flu Activity Not available.
METAR KMLS 171853Z AUTO 17007KT 10SM CLR 25/09 A2989 RMK AO2 SLP108 T02500089

More Conditions Fewer Conditions

Pressure 29.85 in
Visibility 10.0 miles
Clouds Clear
Dew Point 48 °F
Humidity 36%
Rainfall 0.00 in
Snow Depth 0 in , 0 in , 0 in
UV 7 out of 12
Pollen 5.40 out of 12
Air Quality Not available.
Flu Activity Not available.
METAR KMLS 171853Z AUTO 17007KT 10SM CLR 25/09 A2989 RMK AO2 SLP108 T02500089

More Conditions Fewer Conditions

10-Day Weather Forecast

Almanac

Astronomy

Sep. 17, 2014 Rise Set
Actual Time 6:44 AM MDT 7:10 PM MDT
Civil Twilight 6:13 AM MDT 7:41 PM MDT
Nautical Twilight 5:38 AM MDT 8:16 PM MDT
Astronomical Twilight 5:01 AM MDT 8:53 PM MDT
Moon 12:31 AM MDT 3:36 PM MDT
Length of Visible Light 13h 27m
Length of Day
12h 26m
Tomorrow will be 3m 16s shorter.
Waning Crescent, 33% of the Moon is Illuminated
Today
Waning Crescent
Sep 24
New
Oct 1
First Quarter
Oct 8
Full
Oct 15
Last Quarter

Today's Extremes

State Highs State Lows

Community

WunderPhotos

Upload Photos

1,754,149 photos uploaded!

Nearby

Snow Depth

Station Depth Elevation
Badger Pass 0 in 6900 ft
Garver Creek 0 in 4250 ft
Black Pine 0 in 7210 ft
Fisher Creek 0 in 9100 ft
Brackett Creek 0 in 7320 ft

Earthquake Activity

City Distance Mag. Time & Date
No recent earthquake activity has been reported nearby.
Minimum magnitude displayed is 2.5.

Coastal Water Temperatures

Place Temperature
No Stations Reporting

Nearby Weather Stations